Time;durP1;ratioP1;P1;durP2;ratioP2;P2;SDS_P1;SDS_P2;PMS_P1;PMS_P2;Temp;Humidity;BMP_temperature;BMP_pressure;BME280_temperature;BME280_humidity;BME280_pressure;Samples;Min_cycle;Max_cycle;Signal;HPM_P1;HPM_P2
2023/06/14 00:00:40;;;;;;;;;;;12.90;99.90;;;;;;5016654;28;20033;-93
2023/06/14 00:03:09;;;;;;;6.35;4.20;;;12.90;99.90;;;;;;5016408;28;20442;-93
2023/06/14 00:05:43;;;;;;;7.68;3.70;;;12.80;99.90;;;;;;5015738;28;20129;-95
2023/06/14 00:08:09;;;;;;;4.30;2.42;;;12.80;99.90;;;;;;5016532;28;20030;-94
2023/06/14 00:10:41;;;;;;;6.15;2.80;;;12.80;99.90;;;;;;5016066;28;20102;-92
2023/06/14 00:13:08;;;;;;;11.10;3.70;;;12.80;99.90;;;;;;5019088;28;20079;-92
2023/06/14 00:15:34;;;;;;;4.68;3.28;;;12.80;99.90;;;;;;5014618;28;20029;-93
2023/06/14 00:18:00;;;;;;;4.40;2.90;;;12.80;99.90;;;;;;5015913;28;20033;-92
2023/06/14 00:20:32;;;;;;;6.30;3.10;;;12.80;99.90;;;;;;5016088;28;20037;-93
2023/06/14 00:23:01;;;;;;;7.05;3.28;;;12.80;99.90;;;;;;5015591;28;20034;-93
2023/06/14 00:25:27;;;;;;;5.85;2.75;;;12.70;99.90;;;;;;5015861;28;20085;-92
2023/06/14 00:27:54;;;;;;;;;;;12.70;99.90;;;;;;5017188;28;20542;-92
2023/06/14 00:30:19;;;;;;;5.80;3.53;;;12.70;99.90;;;;;;5015815;28;19909;-93
2023/06/14 00:32:45;;;;;;;;;;;12.70;99.90;;;;;;5016061;28;20270;-93
2023/06/14 00:35:12;;;;;;;4.32;2.97;;;12.60;99.90;;;;;;5017239;28;19976;-92
2023/06/14 00:37:38;;;;;;;5.55;3.08;;;12.60;99.90;;;;;;5033743;28;20021;-93
2023/06/14 00:40:06;;;;;;;8.70;4.65;;;12.60;99.90;;;;;;5033486;28;20033;-93
2023/06/14 00:42:32;;;;;;;7.65;3.47;;;12.60;99.90;;;;;;5015076;28;20032;-90
2023/06/14 00:44:58;;;;;;;;;;;12.50;99.90;;;;;;5016394;28;20056;-92
2023/06/14 00:47:24;;;;;;;4.60;2.75;;;12.50;99.90;;;;;;5016017;28;19913;-93
2023/06/14 00:49:51;;;;;;;3.15;1.92;;;12.50;99.90;;;;;;5020038;28;20032;-93
2023/06/14 00:52:18;;;;;;;6.15;3.33;;;12.40;99.90;;;;;;5016580;28;20036;-93
2023/06/14 00:54:44;;;;;;;3.70;2.65;;;12.40;99.90;;;;;;5015765;28;20045;-93
2023/06/14 00:57:10;;;;;;;4.63;2.97;;;12.40;99.90;;;;;;5015610;28;20033;-91
2023/06/14 00:59:47;;;;;;;6.38;3.75;;;12.30;99.90;;;;;;5033236;28;20025;-91
2023/06/14 01:02:17;;;;;;;5.63;2.92;;;12.30;99.90;;;;;;5016437;28;20026;-91
2023/06/14 01:04:47;;;;;;;10.00;3.00;;;12.30;99.90;;;;;;5015476;28;20621;-90
2023/06/14 01:07:26;;;;;;;5.10;2.20;;;12.20;99.90;;;;;;5015275;28;20116;-92
2023/06/14 01:10:11;;;;;;;5.50;3.00;;;12.20;99.90;;;;;;5015202;28;20083;-93
2023/06/14 01:13:01;;;;;;;3.30;2.50;;;12.10;99.90;;;;;;5032955;28;20033;-91
2023/06/14 01:15:30;;;;;;;3.35;2.60;;;12.10;99.90;;;;;;4993581;28;20031;-94
2023/06/14 01:17:57;;;;;;;4.68;3.03;;;12.10;99.90;;;;;;4993424;28;20122;-92
2023/06/14 01:20:29;;;;;;;5.35;3.03;;;12.10;99.90;;;;;;4993459;28;20050;-93
2023/06/14 01:22:55;;;;;;;13.43;3.22;;;12.00;99.90;;;;;;4996578;28;20033;-93
2023/06/14 01:25:22;;;;;;;;;;;12.00;99.90;;;;;;4994256;28;20030;-93
2023/06/14 01:28:16;;;;;;;6.15;2.72;;;12.00;99.90;;;;;;4995113;28;19988;-94
2023/06/14 01:30:47;;;;;;;4.25;2.72;;;12.00;99.90;;;;;;4991978;28;20038;-93
2023/06/14 01:33:15;;;;;;;6.00;2.83;;;11.90;99.90;;;;;;4997019;28;20072;-92
2023/06/14 01:35:45;;;;;;;5.25;3.22;;;11.90;99.90;;;;;;5014212;28;20057;-93
2023/06/14 01:38:13;;;;;;;5.13;3.17;;;11.80;99.90;;;;;;5015148;28;20007;-91
2023/06/14 01:40:40;;;;;;;4.30;2.92;;;11.70;99.90;;;;;;5003212;28;20027;-93
2023/06/14 01:43:06;;;;;;;5.88;3.25;;;11.70;99.90;;;;;;4995911;28;20495;-94
2023/06/14 01:45:33;;;;;;;7.32;3.38;;;11.60;99.90;;;;;;4992846;28;20022;-94
2023/06/14 01:48:00;;;;;;;5.28;3.45;;;11.60;99.90;;;;;;4992990;28;20034;-92
2023/06/14 01:50:31;;;;;;;5.47;2.80;;;11.50;99.90;;;;;;4992576;28;20038;-91
2023/06/14 01:52:58;;;;;;;7.85;3.28;;;11.40;99.90;;;;;;4993725;28;20101;-90
2023/06/14 01:55:24;;;;;;;6.30;2.60;;;11.40;99.90;;;;;;4996194;28;20031;-94
2023/06/14 01:57:51;;;;;;;6.13;3.60;;;11.40;99.90;;;;;;4997193;28;20026;-92
2023/06/14 02:00:18;;;;;;;6.60;3.03;;;11.30;99.90;;;;;;4995690;28;20212;-94
2023/06/14 02:02:44;;;;;;;6.68;3.80;;;11.30;99.90;;;;;;4995055;28;20026;-94
2023/06/14 02:05:10;;;;;;;4.18;3.03;;;11.30;99.90;;;;;;4996379;28;20023;-93
2023/06/14 02:07:36;;;;;;;;;;;11.30;99.90;;;;;;4996891;28;20042;-92
2023/06/14 02:10:03;;;;;;;3.75;2.80;;;11.40;99.90;;;;;;4997146;28;19906;-92
2023/06/14 02:12:29;;;;;;;5.82;3.67;;;11.30;99.90;;;;;;4995691;28;20509;-93
2023/06/14 02:14:56;;;;;;;;;;;11.30;99.90;;;;;;5013196;28;20053;-92
2023/06/14 02:17:22;;;;;;;7.78;3.50;;;11.30;99.90;;;;;;5016115;28;20232;-93
2023/06/14 02:19:47;;;;;;;;;;;11.30;99.90;;;;;;5016675;28;20022;-92
2023/06/14 02:22:14;;;;;;;5.03;3.47;;;11.30;99.90;;;;;;5015756;28;19952;-90
2023/06/14 02:24:41;;;;;;;6.65;3.58;;;11.20;99.90;;;;;;5015985;28;20394;-92
2023/06/14 02:27:10;;;;;;;9.27;3.60;;;11.30;99.90;;;;;;5014601;28;20037;-93
2023/06/14 02:29:36;;;;;;;5.65;3.25;;;11.20;99.90;;;;;;5014785;28;20037;-92
2023/06/14 02:32:01;;;;;;;;;;;11.30;99.90;;;;;;5014822;28;20026;-91
2023/06/14 02:34:27;;;;;;;7.47;4.00;;;11.30;99.90;;;;;;5014251;28;19905;-92
2023/06/14 02:36:52;;;;;;;;;;;11.30;99.90;;;;;;5015208;28;20033;-92
2023/06/14 02:39:20;;;;;;;5.78;3.38;;;11.30;99.90;;;;;;5015249;28;19906;-92
2023/06/14 02:41:46;;;;;;;4.65;2.95;;;11.30;99.90;;;;;;5026843;28;20470;-93
2023/06/14 02:44:13;;;;;;;;;;;11.30;99.90;;;;;;5015970;28;20026;-94
2023/06/14 02:46:38;;;;;;;4.80;3.38;;;11.30;99.90;;;;;;5013952;28;19936;-91
2023/06/14 02:49:04;;;;;;;;;;;11.20;99.90;;;;;;5014429;28;20483;-92
2023/06/14 02:51:29;;;;;;;6.07;4.03;;;11.20;99.90;;;;;;5014428;28;20313;-94
2023/06/14 02:53:55;;;;;;;;;;;11.20;99.90;;;;;;5014877;28;20572;-92
2023/06/14 02:56:22;;;;;;;5.05;3.20;;;11.20;99.90;;;;;;5014164;28;20466;-92
2023/06/14 02:58:48;;;;;;;5.20;3.25;;;11.20;99.90;;;;;;5014200;28;20030;-93
2023/06/14 03:01:14;;;;;;;4.78;2.85;;;11.20;99.90;;;;;;5014172;28;20026;-91
2023/06/14 03:03:40;;;;;;;;;;;11.20;99.90;;;;;;5014648;28;20037;-92
2023/06/14 03:06:08;;;;;;;5.25;3.13;;;11.30;99.90;;;;;;5014049;28;20298;-90
2023/06/14 03:08:38;;;;;;;5.07;3.08;;;11.30;99.90;;;;;;5013591;28;20597;-85
2023/06/14 03:11:08;;;;;;;7.38;4.00;;;11.30;99.90;;;;;;5026292;28;20052;-91
2023/06/14 03:13:38;;;;;;;8.50;3.88;;;11.40;99.90;;;;;;5013412;28;20050;-91
2023/06/14 03:16:04;;;;;;;5.65;3.83;;;11.40;99.90;;;;;;5013568;28;20049;-90
2023/06/14 03:18:30;;;;;;;;;;;11.40;99.90;;;;;;5014010;28;20025;-91
2023/06/14 03:20:57;;;;;;;6.73;4.37;;;11.30;99.90;;;;;;5013757;28;19963;-91
2023/06/14 03:23:25;;;;;;;7.20;3.85;;;11.40;99.90;;;;;;5014407;28;20029;-91
2023/06/14 03:25:51;;;;;;;5.30;3.58;;;11.40;99.90;;;;;;5013303;28;20117;-92
2023/06/14 03:28:17;;;;;;;6.68;3.83;;;11.40;99.90;;;;;;5013410;28;20033;-91
2023/06/14 03:30:42;;;;;;;;;;;11.50;99.90;;;;;;5014937;28;20110;-91
2023/06/14 03:33:09;;;;;;;7.53;3.55;;;11.50;99.90;;;;;;5023273;28;19932;-91
2023/06/14 03:35:35;;;;;;;5.85;3.83;;;11.50;99.90;;;;;;5017278;28;20514;-92
2023/06/14 03:38:00;;;;;;;;;;;11.60;99.90;;;;;;5013965;28;20021;-92
2023/06/14 03:40:26;;;;;;;7.78;4.47;;;11.70;99.90;;;;;;5013309;28;19909;-92
2023/06/14 03:42:55;;;;;;;5.68;3.55;;;11.80;99.90;;;;;;5014540;28;20053;-92
2023/06/14 03:45:21;;;;;;;8.52;3.97;;;11.80;99.90;;;;;;5013293;28;20022;-91
2023/06/14 03:47:47;;;;;;;5.15;3.75;;;11.90;99.90;;;;;;5013042;28;20523;-92
2023/06/14 03:50:13;;;;;;;;;;;12.00;99.90;;;;;;5013798;28;20397;-91
2023/06/14 03:52:40;;;;;;;6.53;4.03;;;12.00;99.90;;;;;;5014169;28;19906;-91
2023/06/14 03:55:06;;;;;;;4.55;3.30;;;12.10;99.90;;;;;;5013304;28;20033;-92
2023/06/14 03:57:31;;;;;;;6.10;3.38;;;12.20;99.90;;;;;;5013404;28;20022;-92
2023/06/14 03:59:57;;;;;;;;;;;12.30;99.90;;;;;;5013848;28;20037;-92
2023/06/14 04:02:23;;;;;;;6.65;3.75;;;12.50;99.90;;;;;;5013353;28;19913;-93
2023/06/14 04:04:48;;;;;;;;;;;12.70;99.90;;;;;;5014722;28;20148;-92
2023/06/14 04:07:15;;;;;;;5.63;3.45;;;13.00;99.90;;;;;;5014083;28;19914;-91
2023/06/14 04:09:41;;;;;;;10.43;4.90;;;13.40;99.90;;;;;;5014517;28;20101;-92
2023/06/14 04:12:08;;;;;;;;;;;13.70;99.90;;;;;;5014827;28;20076;-92
2023/06/14 04:14:34;;;;;;;14.48;4.78;;;14.00;99.90;;;;;;5012870;28;20011;-92
2023/06/14 04:17:00;;;;;;;7.15;4.10;;;14.10;99.90;;;;;;5012631;28;20128;-92
2023/06/14 04:19:26;;;;;;;10.00;3.42;;;14.30;99.90;;;;;;5011420;28;20033;-92
2023/06/14 04:21:52;;;;;;;5.57;3.15;;;14.30;99.90;;;;;;5012909;28;20061;-93
2023/06/14 04:24:18;;;;;;;;;;;14.40;99.90;;;;;;5014560;28;20133;-92
2023/06/14 04:26:44;;;;;;;10.57;4.15;;;14.50;99.90;;;;;;5011572;28;19920;-93
2023/06/14 04:29:15;;;;;;;11.38;4.57;;;14.70;99.90;;;;;;5012790;28;20018;-92
2023/06/14 04:31:45;;;;;;;7.32;4.45;;;14.70;99.90;;;;;;5014061;28;20034;-92
2023/06/14 04:34:15;;;;;;;7.57;4.13;;;14.90;99.90;;;;;;5013063;28;20022;-92
2023/06/14 04:36:48;;;;;;;8.48;4.43;;;15.00;99.90;;;;;;5014554;28;20068;-92
2023/06/14 04:39:17;;;;;;;7.55;4.85;;;15.10;99.90;;;;;;5012997;28;20076;-92
2023/06/14 04:41:44;;;;;;;9.75;4.97;;;15.20;99.90;;;;;;5014283;28;20121;-92
2023/06/14 04:44:10;;;;;;;8.70;4.88;;;15.10;99.90;;;;;;5035752;28;20029;-91
2023/06/14 04:46:45;;;;;;;11.77;5.65;;;15.20;99.90;;;;;;5034997;28;20102;-92
2023/06/14 04:49:15;;;;;;;10.07;5.63;;;15.20;99.90;;;;;;5015349;28;20112;-92
2023/06/14 04:51:46;;;;;;;8.82;5.47;;;15.10;99.90;;;;;;5013562;28;20032;-92
2023/06/14 04:54:15;;;;;;;11.55;5.85;;;15.30;99.90;;;;;;5012529;28;20029;-92
2023/06/14 04:56:44;;;;;;;7.60;5.18;;;15.40;99.90;;;;;;5012007;28;20026;-91
2023/06/14 04:59:14;;;;;;;7.78;5.30;;;15.50;99.90;;;;;;5010830;28;20045;-92
2023/06/14 05:01:40;;;;;;;10.32;5.07;;;15.60;99.90;;;;;;5012354;28;20029;-92
2023/06/14 05:04:06;;;;;;;7.60;4.60;;;15.70;99.90;;;;;;5010355;28;20033;-92
2023/06/14 05:06:31;;;;;;;;;;;15.70;99.90;;;;;;5012156;28;20026;-92
2023/06/14 05:08:57;;;;;;;7.35;5.05;;;15.80;99.90;;;;;;5011144;28;20001;-92
2023/06/14 05:11:26;;;;;;;9.68;5.90;;;16.00;99.90;;;;;;5010728;28;20026;-93
2023/06/14 05:13:52;;;;;;;8.68;5.50;;;16.10;99.90;;;;;;5010792;28;20169;-92
2023/06/14 05:16:19;;;;;;;11.50;5.13;;;16.10;99.90;;;;;;5011119;28;20022;-92
2023/06/14 05:18:47;;;;;;;8.70;4.85;;;16.30;99.90;;;;;;5012100;28;20033;-92
2023/06/14 05:21:13;;;;;;;7.55;4.93;;;16.50;99.90;;;;;;5011196;28;20052;-92
2023/06/14 05:23:38;;;;;;;6.78;4.57;;;16.70;99.90;;;;;;5011522;28;20037;-92
2023/06/14 05:26:04;;;;;;;8.20;4.38;;;16.90;99.90;;;;;;5011319;28;20052;-93
2023/06/14 05:28:30;;;;;;;9.50;4.60;;;17.00;99.90;;;;;;5019685;28;20030;-93
2023/06/14 05:30:56;;;;;;;8.55;5.22;;;17.10;99.90;;;;;;5014739;28;20030;-93
2023/06/14 05:33:22;;;;;;;6.88;4.03;;;16.90;99.90;;;;;;5015682;28;20053;-93
2023/06/14 05:35:48;;;;;;;7.22;4.30;;;17.00;99.90;;;;;;5015755;28;20506;-91
2023/06/14 05:38:13;;;;;;;7.20;4.00;;;17.10;99.90;;;;;;5016095;28;20040;-91
2023/06/14 05:40:39;;;;;;;8.73;4.05;;;17.20;99.90;;;;;;5015990;28;20045;-91
2023/06/14 05:43:07;;;;;;;7.63;3.95;;;17.50;99.90;;;;;;5014895;28;20026;-92
2023/06/14 05:45:33;;;;;;;8.70;4.13;;;17.80;99.90;;;;;;5015426;28;20026;-91
2023/06/14 05:47:59;;;;;;;6.10;3.92;;;18.40;99.90;;;;;;5015810;28;20040;-93
2023/06/14 05:50:24;;;;;;;7.28;3.90;;;19.00;99.90;;;;;;5016422;28;20112;-93
2023/06/14 05:52:51;;;;;;;8.20;4.15;;;19.60;97.90;;;;;;5019674;28;20026;-92
2023/06/14 05:55:17;;;;;;;5.63;3.55;;;20.30;95.10;;;;;;5016770;28;20450;-93
2023/06/14 05:57:43;;;;;;;5.28;3.33;;;21.20;90.60;;;;;;5019209;28;20033;-93
2023/06/14 06:00:14;;;;;;;5.32;3.35;;;22.60;77.50;;;;;;5015507;28;20502;-93
2023/06/14 06:02:42;;;;;;;6.78;3.60;;;24.20;63.80;;;;;;5014722;28;20502;-91
2023/06/14 06:05:08;;;;;;;5.57;3.03;;;25.50;59.50;;;;;;5014042;28;20113;-93
2023/06/14 06:07:34;;;;;;;4.22;2.90;;;26.50;55.10;;;;;;5013668;28;20092;-92
2023/06/14 06:10:00;;;;;;;5.38;2.95;;;27.40;50.60;;;;;;5015418;28;20441;-91
2023/06/14 06:12:25;;;;;;;5.80;2.80;;;28.20;46.80;;;;;;5014026;28;20080;-91
2023/06/14 06:14:51;;;;;;;5.05;3.25;;;29.00;44.60;;;;;;5033114;28;20045;-92
2023/06/14 06:17:17;;;;;;;5.15;2.97;;;29.10;42.30;;;;;;5017812;28;20040;-90
2023/06/14 06:19:42;;;;;;;6.60;2.80;;;28.90;42.50;;;;;;5035054;28;20025;-91
2023/06/14 06:22:08;;;;;;;5.00;2.85;;;28.70;40.60;;;;;;5018288;28;20116;-91
2023/06/14 06:24:34;;;;;;;5.93;2.42;;;28.60;41.00;;;;;;5035373;28;20032;-91
2023/06/14 06:27:00;;;;;;;4.68;2.65;;;28.80;41.00;;;;;;5017099;28;20038;-92
2023/06/14 06:29:26;;;;;;;6.18;3.10;;;29.00;38.70;;;;;;5041891;28;20049;-91
2023/06/14 06:34:35;;;;;;;4.35;3.08;;;28.70;38.80;;;;;;5038713;28;20028;-91
2023/06/14 06:37:01;;;;;;;5.40;3.22;;;29.20;38.90;;;;;;5022807;28;20033;-93
2023/06/14 06:39:27;;;;;;;5.65;3.80;;;29.00;38.50;;;;;;5021791;28;20065;-92
2023/06/14 06:41:52;;;;;;;5.45;2.72;;;29.00;39.40;;;;;;5021044;28;20044;-93
2023/06/14 06:44:18;;;;;;;5.28;3.13;;;28.70;38.90;;;;;;5021743;28;20481;-93
2023/06/14 06:46:44;;;;;;;4.07;2.72;;;29.20;39.80;;;;;;5020415;28;20049;-91
2023/06/14 06:49:11;;;;;;;8.45;2.85;;;29.80;38.90;;;;;;5039529;28;20083;-93
2023/06/14 06:51:37;;;;;;;7.82;3.15;;;30.70;37.30;;;;;;5036633;28;20022;-91
2023/06/14 06:54:03;;;;;;;7.82;3.15;;;31.00;34.90;;;;;;5038907;28;20026;-92
2023/06/14 06:56:29;;;;;;;5.90;2.67;;;30.70;35.90;;;;;;5035882;28;20037;-93
2023/06/14 06:58:54;;;;;;;4.50;2.90;;;30.60;36.30;;;;;;5037578;28;20487;-94
2023/06/14 07:01:20;;;;;;;4.47;2.65;;;30.40;36.90;;;;;;5039333;28;20022;-92
2023/06/14 07:03:46;;;;;;;3.45;2.40;;;30.50;36.30;;;;;;5017297;28;20040;-92
2023/06/14 07:06:12;;;;;;;4.90;3.42;;;30.90;36.50;;;;;;5016634;28;20064;-93
2023/06/14 07:08:40;;;;;;;6.68;3.33;;;30.80;36.70;;;;;;5016551;28;20029;-93
2023/06/14 07:11:06;;;;;;;6.30;3.92;;;31.20;35.90;;;;;;5019087;28;20045;-91
2023/06/14 07:13:31;;;;;;;4.47;2.80;;;31.20;34.80;;;;;;5035101;28;20100;-93
2023/06/14 07:16:00;;;;;;;5.80;3.38;;;31.30;35.00;;;;;;5035254;28;20021;-92
2023/06/14 07:18:26;;;;;;;9.75;3.58;;;31.50;34.50;;;;;;5016352;28;20109;-93
2023/06/14 07:20:53;;;;;;;8.38;3.47;;;31.40;35.30;;;;;;5017601;28;20095;-92
2023/06/14 07:23:19;;;;;;;4.85;3.30;;;31.40;35.50;;;;;;5017581;28;20025;-93
2023/06/14 07:25:44;;;;;;;5.25;2.78;;;31.40;34.50;;;;;;5042118;28;20030;-93
2023/06/14 07:28:10;;;;;;;3.05;2.33;;;31.50;34.40;;;;;;5017144;28;20080;-94
2023/06/14 07:30:36;;;;;;;3.60;2.33;;;31.40;34.50;;;;;;5017867;28;20116;-93
2023/06/14 07:33:01;;;;;;;4.35;2.58;;;31.40;34.60;;;;;;5033746;28;20056;-93
2023/06/14 07:35:27;;;;;;;7.45;2.40;;;31.20;34.40;;;;;;5033174;28;20029;-93
2023/06/14 07:37:53;;;;;;;3.55;2.70;;;30.90;35.10;;;;;;5035647;28;20101;-94
2023/06/14 07:40:18;;;;;;;4.00;2.38;;;30.80;35.50;;;;;;5018743;28;20033;-93
2023/06/14 07:42:44;;;;;;;7.47;3.00;;;30.80;35.10;;;;;;5018250;28;20032;-93
2023/06/14 07:45:14;;;;;;;4.53;3.03;;;31.00;35.10;;;;;;5036022;28;20029;-93
2023/06/14 07:47:40;;;;;;;3.58;2.92;;;30.90;35.30;;;;;;5017056;28;20041;-93
2023/06/14 07:50:06;;;;;;;8.55;3.10;;;31.00;35.90;;;;;;5034906;28;20032;-89
2023/06/14 07:52:31;;;;;;;7.75;2.58;;;30.70;35.90;;;;;;5046530;28;20033;-92
2023/06/14 07:54:58;;;;;;;5.18;2.72;;;30.90;35.70;;;;;;5051534;28;20032;-93
2023/06/14 07:57:24;;;;;;;5.53;3.05;;;30.80;36.50;;;;;;5034065;28;20022;-92
2023/06/14 07:59:50;;;;;;;6.53;2.70;;;30.80;36.50;;;;;;5016037;28;20124;-92
2023/06/14 08:02:15;;;;;;;4.97;2.88;;;30.80;36.60;;;;;;5015998;28;20053;-93
2023/06/14 08:04:42;;;;;;;6.45;3.33;;;30.80;35.30;;;;;;5033186;28;20608;-92
2023/06/14 08:07:08;;;;;;;4.90;3.55;;;30.40;34.40;;;;;;5015711;28;20148;-92
2023/06/14 08:09:34;;;;;;;3.97;2.75;;;30.50;34.60;;;;;;5016093;28;20064;-93
2023/06/14 08:12:00;;;;;;;3.40;2.40;;;29.90;36.50;;;;;;5015634;28;20033;-92
2023/06/14 08:14:26;;;;;;;7.22;3.28;;;29.90;36.10;;;;;;4974997;28;1169175;-93
2023/06/14 08:16:51;;;;;;;6.82;2.92;;;30.40;35.00;;;;;;5033354;28;20060;-93
2023/06/14 08:19:18;;;;;;;4.32;3.42;;;29.90;36.60;;;;;;5033785;28;20026;-93
2023/06/14 08:21:43;;;;;;;5.35;3.13;;;30.00;36.60;;;;;;5019296;28;20399;-92
2023/06/14 08:24:12;;;;;;;4.95;2.70;;;30.10;37.80;;;;;;5017401;28;20056;-93
2023/06/14 08:26:39;;;;;;;9.48;3.35;;;30.10;37.00;;;;;;5017109;28;20029;-94
2023/06/14 08:29:06;;;;;;;7.32;2.63;;;30.40;36.50;;;;;;5017157;28;20038;-93
2023/06/14 08:31:32;;;;;;;5.10;2.78;;;30.60;36.80;;;;;;5016629;28;20021;-91
2023/06/14 08:33:58;;;;;;;4.43;3.08;;;30.80;37.60;;;;;;5016209;28;20030;-93
2023/06/14 08:36:24;;;;;;;5.10;2.55;;;30.50;37.60;;;;;;5017802;28;20517;-93
2023/06/14 08:38:49;;;;;;;4.72;2.55;;;30.80;37.00;;;;;;5033506;28;20398;-92
2023/06/14 08:41:21;;;;;;;6.40;2.85;;;30.90;36.20;;;;;;5033698;28;20029;-93
2023/06/14 08:43:47;;;;;;;3.97;2.58;;;31.00;37.20;;;;;;5032645;28;20035;-91
2023/06/14 08:46:19;;;;;;;5.00;2.97;;;31.00;35.70;;;;;;5014955;28;20120;-91
2023/06/14 08:48:48;;;;;;;3.85;2.58;;;31.00;36.60;;;;;;5015686;28;20032;-91
2023/06/14 08:51:18;;;;;;;3.78;2.70;;;31.00;37.20;;;;;;5015492;28;20034;-91
2023/06/14 08:53:44;;;;;;;4.47;2.47;;;30.90;36.40;;;;;;5014585;28;20089;-91
2023/06/14 08:56:13;;;;;;;5.53;2.58;;;31.30;35.10;;;;;;5015581;28;20026;-92
2023/06/14 08:58:49;;;;;;;4.07;2.10;;;31.30;36.00;;;;;;5015484;28;20036;-91
2023/06/14 09:01:17;;;;;;;3.72;2.72;;;31.40;36.50;;;;;;5033044;28;20393;-91
2023/06/14 09:03:44;;;;;;;6.25;3.15;;;31.30;35.80;;;;;;5015643;28;20026;-91
2023/06/14 09:06:13;;;;;;;5.00;2.85;;;31.20;36.20;;;;;;5037239;28;20512;-91
2023/06/14 09:08:44;;;;;;;9.95;2.88;;;31.10;35.70;;;;;;5019681;28;20040;-91
2023/06/14 09:11:18;;;;;;;8.73;2.58;;;31.20;36.40;;;;;;5036321;28;20021;-91
2023/06/14 09:13:45;;;;;;;5.20;2.90;;;31.20;35.10;;;;;;5036307;28;20050;-92
2023/06/14 09:16:11;;;;;;;3.55;2.33;;;31.10;35.40;;;;;;5018789;28;20686;-91
2023/06/14 09:18:40;;;;;;;4.03;2.70;;;31.20;35.50;;;;;;5017910;28;20029;-91
2023/06/14 09:21:07;;;;;;;5.22;2.63;;;31.00;35.10;;;;;;5018660;28;20033;-91
2023/06/14 09:23:41;;;;;;;8.00;3.15;;;31.20;37.10;;;;;;5022507;28;20076;-91
2023/06/14 09:26:15;;;;;;;6.28;2.83;;;31.30;35.60;;;;;;5019501;28;20032;-92
2023/06/14 09:28:48;;;;;;;6.50;2.78;;;31.20;35.80;;;;;;5020686;28;20052;-92
2023/06/14 09:31:16;;;;;;;3.85;2.20;;;31.40;35.80;;;;;;5018281;28;20028;-91
2023/06/14 09:33:47;;;;;;;6.18;3.13;;;31.30;35.70;;;;;;5017766;28;20038;-91
2023/06/14 09:36:16;;;;;;;4.20;2.53;;;31.50;35.20;;;;;;5018929;28;20037;-92
2023/06/14 09:38:42;;;;;;;4.93;2.70;;;31.90;35.50;;;;;;5036004;28;20036;-92
2023/06/14 09:41:07;;;;;;;4.00;2.85;;;31.70;34.90;;;;;;5018091;28;20112;-90
2023/06/14 09:43:34;;;;;;;3.10;2.33;;;31.70;34.90;;;;;;5017749;28;20037;-89
2023/06/14 09:46:04;;;;;;;7.03;2.67;;;31.80;36.00;;;;;;5019119;28;20048;-91
2023/06/14 09:48:30;;;;;;;6.53;2.70;;;31.30;33.20;;;;;;5035347;28;20025;-91
2023/06/14 09:50:59;;;;;;;7.00;4.72;;;30.80;34.90;;;;;;5037521;28;20030;-92
2023/06/14 09:53:27;;;;;;;5.07;2.97;;;30.30;37.90;;;;;;5018119;28;20494;-92
2023/06/14 09:55:54;;;;;;;5.50;2.75;;;29.70;38.40;;;;;;5017778;28;20061;-93
2023/06/14 09:58:23;;;;;;;4.03;2.17;;;29.80;38.60;;;;;;5021162;28;20071;-93
2023/06/14 10:00:50;;;;;;;3.72;2.03;;;30.10;36.30;;;;;;5036799;28;20514;-92
2023/06/14 10:03:28;;;;;;;4.82;2.08;;;30.20;35.40;;;;;;5017507;28;20128;-93
2023/06/14 10:05:55;;;;;;;6.13;1.88;;;30.10;35.60;;;;;;5034334;28;20060;-93
2023/06/14 10:08:27;;;;;;;9.20;2.70;;;29.80;36.40;;;;;;5034279;28;20025;-91
2023/06/14 10:10:55;;;;;;;7.20;2.38;;;29.40;37.70;;;;;;5017415;28;20095;-93
2023/06/14 10:13:21;;;;;;;3.75;2.25;;;29.00;38.80;;;;;;5013602;28;20522;-92
2023/06/14 10:16:19;;;;;;;4.13;2.92;;;28.70;39.30;;;;;;5020036;28;20105;-93
2023/06/14 10:19:11;;;;;;;7.90;1.90;;;28.50;39.00;;;;;;5007000;28;20580;-91
2023/06/14 10:21:55;;;;;;;4.03;1.90;;;28.40;38.00;;;;;;5015300;28;20025;-92
2023/06/14 10:24:29;;;;;;;3.17;2.00;;;28.40;39.80;;;;;;5015573;28;20021;-92
2023/06/14 10:26:58;;;;;;;6.13;2.17;;;28.30;38.20;;;;;;5014837;28;20037;-92
2023/06/14 10:29:24;;;;;;;3.85;2.60;;;28.20;38.40;;;;;;5015100;28;20046;-92
2023/06/14 10:31:55;;;;;;;5.20;2.47;;;28.10;39.00;;;;;;5014744;28;20482;-92
2023/06/14 10:34:29;;;;;;;7.38;2.90;;;28.00;38.50;;;;;;5016019;28;20045;-91
2023/06/14 10:37:05;;;;;;;9.02;2.70;;;27.90;38.50;;;;;;5014305;28;20117;-92
2023/06/14 10:39:31;;;;;;;4.35;2.20;;;28.00;38.20;;;;;;5014488;28;20037;-92
2023/06/14 10:42:01;;;;;;;5.40;2.75;;;27.70;37.90;;;;;;5013398;28;20033;-93
2023/06/14 10:44:29;;;;;;;8.40;1.88;;;27.50;39.60;;;;;;5013952;28;20040;-94
2023/06/14 10:47:00;;;;;;;6.88;2.20;;;27.40;39.70;;;;;;5013639;28;20037;-91
2023/06/14 10:49:45;;;;;;;3.90;2.03;;;27.30;40.80;;;;;;5013559;28;20042;-92
2023/06/14 10:52:21;;;;;;;4.25;2.17;;;27.30;39.40;;;;;;5014491;28;20026;-93
2023/06/14 10:55:00;;;;;;;3.63;2.28;;;27.00;38.80;;;;;;5019558;28;20117;-94
2023/06/14 10:57:26;;;;;;;5.38;2.25;;;27.00;39.50;;;;;;5036763;28;20044;-94
2023/06/14 10:59:52;;;;;;;3.80;2.25;;;26.90;37.50;;;;;;5037781;28;20207;-93
2023/06/14 11:02:24;;;;;;;7.68;2.85;;;26.80;38.10;;;;;;5017078;28;20577;-92
2023/06/14 11:04:55;;;;;;;9.65;6.80;;;26.80;38.10;;;;;;5015616;28;20109;-93
2023/06/14 11:07:53;;;;;;;5.10;3.20;;;26.80;39.30;;;;;;5012995;28;20563;-93
2023/06/14 11:10:41;;;;;;;15.45;2.30;;;26.70;38.10;;;;;;5013470;28;20036;-93
2023/06/14 11:13:07;;;;;;;6.47;2.47;;;26.70;38.70;;;;;;5016292;28;20085;-93
2023/06/14 11:15:38;;;;;;;8.13;1.55;;;26.60;36.70;;;;;;5034261;28;20030;-93
2023/06/14 11:18:09;;;;;;;6.07;1.67;;;26.50;36.90;;;;;;5034434;28;20025;-92
2023/06/14 11:20:35;;;;;;;7.10;1.67;;;26.50;37.30;;;;;;5041881;28;20025;-93
2023/06/14 11:23:02;;;;;;;3.97;1.90;;;26.50;37.40;;;;;;5034592;28;20029;-93
2023/06/14 11:25:28;;;;;;;12.23;2.22;;;26.60;37.30;;;;;;5035918;28;20501;-93
2023/06/14 11:27:55;;;;;;;6.95;2.65;;;26.40;38.50;;;;;;5015021;28;20033;-93
2023/06/14 11:30:21;;;;;;;4.22;2.65;;;26.30;39.40;;;;;;5034750;28;20075;-93
2023/06/14 11:32:51;;;;;;;3.17;2.05;;;26.50;39.00;;;;;;5016660;28;20076;-91
2023/06/14 11:35:18;;;;;;;4.43;2.53;;;26.60;39.10;;;;;;5016787;28;20044;-93
2023/06/14 11:37:44;;;;;;;3.85;1.50;;;26.70;39.10;;;;;;5017066;28;20045;-93
2023/06/14 11:40:11;;;;;;;5.50;2.42;;;26.90;40.20;;;;;;5016761;28;20030;-93
2023/06/14 11:42:39;;;;;;;3.95;1.98;;;27.10;39.00;;;;;;5016119;28;20504;-93
2023/06/14 11:45:10;;;;;;;5.18;2.42;;;27.10;38.30;;;;;;5016369;28;20030;-94
2023/06/14 11:47:37;;;;;;;3.78;2.00;;;27.20;37.50;;;;;;5032898;28;20029;-92
2023/06/14 11:50:04;;;;;;;5.93;2.50;;;27.20;37.70;;;;;;5015598;28;20021;-92
2023/06/14 11:52:31;;;;;;;4.05;2.40;;;27.30;40.10;;;;;;5015260;28;20025;-94
2023/06/14 11:54:57;;;;;;;7.75;2.47;;;27.40;41.10;;;;;;5015495;28;20567;-92
2023/06/14 11:57:23;;;;;;;3.53;1.73;;;27.20;39.50;;;;;;5015511;28;20305;-93
2023/06/14 11:59:49;;;;;;;5.72;2.40;;;27.00;39.20;;;;;;5014418;28;20035;-92
2023/06/14 12:02:21;;;;;;;3.67;2.10;;;26.70;37.60;;;;;;5015607;28;20032;-93
2023/06/14 12:04:50;;;;;;;3.45;2.30;;;26.50;37.80;;;;;;5015778;28;20029;-94
2023/06/14 12:07:19;;;;;;;3.05;1.98;;;26.30;38.90;;;;;;5020006;28;20042;-93
2023/06/14 12:09:54;;;;;;;3.65;1.60;;;26.30;38.70;;;;;;5033680;28;20032;-93
2023/06/14 12:12:26;;;;;;;5.07;1.75;;;26.20;36.10;;;;;;5015798;28;20398;-92
2023/06/14 12:14:53;;;;;;;3.63;2.25;;;26.10;35.60;;;;;;5033707;28;20045;-93
2023/06/14 12:17:19;;;;;;;2.63;1.70;;;25.90;36.40;;;;;;5015210;28;20080;-93
2023/06/14 12:19:46;;;;;;;2.92;2.08;;;25.60;36.00;;;;;;5015475;28;20026;-92
2023/06/14 12:22:13;;;;;;;3.05;1.73;;;25.70;37.40;;;;;;5033013;28;20087;-93
2023/06/14 12:24:42;;;;;;;7.75;2.25;;;25.80;36.60;;;;;;5032903;28;20013;-92
2023/06/14 12:27:08;;;;;;;4.65;1.73;;;25.80;35.40;;;;;;5033249;28;20038;-92
2023/06/14 12:29:33;;;;;;;5.20;1.80;;;25.80;36.20;;;;;;5014884;28;20036;-93
2023/06/14 12:31:59;;;;;;;7.30;1.80;;;25.90;36.90;;;;;;5014852;28;20109;-93
2023/06/14 12:34:26;;;;;;;3.47;1.73;;;25.90;35.90;;;;;;5016353;28;20068;-92
2023/06/14 12:36:53;;;;;;;6.22;2.05;;;26.00;36.80;;;;;;5014797;28;20086;-92
2023/06/14 12:39:19;;;;;;;2.80;2.13;;;26.10;36.60;;;;;;5015104;28;20028;-93
2023/06/14 12:41:45;;;;;;;4.55;1.70;;;26.20;35.20;;;;;;5014739;28;20021;-92
2023/06/14 12:44:11;;;;;;;3.45;2.10;;;26.30;35.60;;;;;;5015558;28;20028;-92
2023/06/14 12:46:39;;;;;;;3.60;1.33;;;26.20;34.90;;;;;;5015024;28;20409;-92
2023/06/14 12:49:06;;;;;;;5.93;1.95;;;26.20;34.90;;;;;;5015584;28;20034;-93
2023/06/14 12:51:32;;;;;;;4.72;1.33;;;26.30;35.20;;;;;;5032560;28;20022;-91
2023/06/14 12:53:58;;;;;;;7.20;1.25;;;26.50;33.40;;;;;;5032131;28;20037;-91
2023/06/14 12:56:23;;;;;;;6.30;1.90;;;26.60;34.10;;;;;;5032546;28;20056;-92
2023/06/14 12:58:49;;;;;;;6.85;2.08;;;26.70;34.60;;;;;;5014716;28;20513;-92